createdAt,value
2018-11-23T00:00:06.898Z,3.36
2018-11-23T00:01:06.891Z,3.33
2018-11-23T00:02:06.887Z,3.25
2018-11-23T00:03:06.905Z,3.34
2018-11-23T00:04:06.875Z,3.34
2018-11-23T00:05:06.869Z,3.30
2018-11-23T00:06:06.864Z,3.30
2018-11-23T00:07:06.855Z,3.30
2018-11-23T00:08:06.876Z,3.42
2018-11-23T00:09:06.849Z,3.33
2018-11-23T00:10:06.835Z,3.34
2018-11-23T00:11:06.834Z,3.44
2018-11-23T00:12:06.824Z,3.44
2018-11-23T00:13:06.854Z,3.46
2018-11-23T00:14:06.811Z,3.54
2018-11-23T00:15:06.813Z,3.60
2018-11-23T00:16:06.806Z,3.52
2018-11-23T00:17:06.803Z,3.60
2018-11-23T00:18:06.818Z,3.44
2018-11-23T00:19:06.789Z,3.36
2018-11-23T00:20:06.784Z,3.24
2018-11-23T00:21:06.776Z,3.31
2018-11-23T00:22:06.771Z,3.13
2018-11-23T00:23:06.796Z,3.25
2018-11-23T00:24:06.750Z,3.13
2018-11-23T00:25:06.764Z,3.18
2018-11-23T00:26:06.746Z,3.16
2018-11-23T00:27:06.739Z,3.24
2018-11-23T00:28:06.763Z,3.20
2018-11-23T00:29:06.758Z,3.21
2018-11-23T00:30:06.729Z,3.27
2018-11-23T00:31:06.714Z,3.16
2018-11-23T00:32:06.711Z,3.10
2018-11-23T00:33:06.706Z,3.09
2018-11-23T00:34:06.731Z,3.03
2018-11-23T00:35:06.693Z,3.02
2018-11-23T00:36:06.691Z,3.06
2018-11-23T00:37:06.676Z,3.10
2018-11-23T00:38:06.683Z,3.07
2018-11-23T00:39:06.699Z,3.02
2018-11-23T00:40:06.667Z,3.02
2018-11-23T00:41:06.651Z,3.00
2018-11-23T00:42:06.653Z,2.97
2018-11-23T00:43:06.677Z,2.95
2018-11-23T00:44:06.642Z,2.94
2018-11-23T00:45:06.637Z,2.97
2018-11-23T00:46:06.629Z,2.97
2018-11-23T00:47:06.625Z,2.97
2018-11-23T00:48:06.642Z,3.09
2018-11-23T00:49:06.613Z,3.00
2018-11-23T00:50:06.609Z,3.06
2018-11-23T00:51:06.599Z,3.15
2018-11-23T00:52:06.590Z,3.12
2018-11-23T00:53:06.621Z,3.05
2018-11-23T00:54:06.579Z,3.02
2018-11-23T00:55:06.579Z,3.02
2018-11-23T00:56:06.578Z,3.03
2018-11-23T00:57:06.570Z,2.98
2018-11-23T00:58:06.585Z,3.06
2018-11-23T00:59:06.557Z,2.97
2018-11-23T01:00:06.548Z,3.09
2018-11-23T01:01:06.544Z,3.02
2018-11-23T01:02:06.540Z,2.95
2018-11-23T01:03:06.557Z,3.15
2018-11-23T01:04:06.524Z,3.13
2018-11-23T01:05:06.517Z,3.06
2018-11-23T01:06:06.512Z,3.18
2018-11-23T01:07:06.514Z,3.09
2018-11-23T01:08:06.532Z,3.12
2018-11-23T01:09:06.494Z,3.10
2018-11-23T01:10:06.493Z,3.09
2018-11-23T01:11:06.485Z,3.10
2018-11-23T01:12:06.477Z,2.97
2018-11-23T01:13:06.495Z,3.07
2018-11-23T01:14:06.464Z,3.13
2018-11-23T01:15:06.458Z,2.97
2018-11-23T01:16:06.459Z,3.02
2018-11-23T01:17:06.476Z,3.02
2018-11-23T01:18:06.446Z,3.10
2018-11-23T01:19:06.436Z,3.06
2018-11-23T01:20:06.433Z,3.02
2018-11-23T01:21:06.424Z,3.02
2018-11-23T01:22:06.448Z,3.05
2018-11-23T01:23:06.411Z,3.09
2018-11-23T01:24:06.408Z,3.18
2018-11-23T01:25:06.399Z,3.13
2018-11-23T01:26:06.448Z,3.16
2018-11-23T01:27:06.420Z,3.16
2018-11-23T01:28:06.387Z,3.24
2018-11-23T01:29:06.379Z,3.20
2018-11-23T01:30:06.375Z,3.18
2018-11-23T01:31:06.367Z,3.21
2018-11-23T01:32:06.385Z,3.25
2018-11-23T01:33:06.355Z,3.25
2018-11-23T01:34:06.348Z,3.20
2018-11-23T01:35:06.343Z,3.27
2018-11-23T01:36:06.339Z,3.20
2018-11-23T01:37:06.364Z,3.24
2018-11-23T01:38:06.327Z,3.12
2018-11-23T01:39:06.319Z,3.24
2018-11-23T01:40:06.313Z,3.10
2018-11-23T01:41:06.311Z,3.27
2018-11-23T01:42:06.331Z,3.12
2018-11-23T01:43:06.296Z,3.24
2018-11-23T01:44:06.289Z,3.20
2018-11-23T01:45:06.287Z,3.15
2018-11-23T01:46:06.279Z,3.18
2018-11-23T01:47:06.303Z,3.23
2018-11-23T01:48:06.273Z,3.25
2018-11-23T01:49:06.271Z,3.20
2018-11-23T01:50:06.258Z,3.30
2018-11-23T01:51:06.275Z,3.42
2018-11-23T01:52:06.247Z,3.40
2018-11-23T01:53:06.243Z,3.36
2018-11-23T01:54:06.233Z,3.43
2018-11-23T01:55:06.262Z,3.43
2018-11-23T01:56:06.223Z,3.36
2018-11-23T01:57:06.246Z,3.42
2018-11-23T01:58:06.215Z,3.36
2018-11-23T01:59:06.206Z,3.40
2018-11-23T02:00:06.202Z,3.40
2018-11-23T02:01:06.194Z,3.39
2018-11-23T02:02:06.215Z,3.39
2018-11-23T02:03:06.186Z,3.34
2018-11-23T02:04:06.180Z,3.30
2018-11-23T02:05:06.172Z,3.28
2018-11-23T02:06:06.165Z,3.23
2018-11-23T02:07:06.194Z,3.20
2018-11-23T02:08:06.180Z,3.21
2018-11-23T02:09:06.149Z,3.24
2018-11-23T02:10:06.143Z,3.25
2018-11-23T02:11:06.139Z,3.16
2018-11-23T02:12:06.126Z,3.20
2018-11-23T02:13:06.154Z,3.25
2018-11-23T02:14:06.126Z,3.27
2018-11-23T02:15:06.117Z,3.27
2018-11-23T02:16:06.110Z,3.30
2018-11-23T02:17:06.130Z,3.33
2018-11-23T02:18:06.094Z,3.28
2018-11-23T02:19:06.090Z,3.20
2018-11-23T02:20:06.087Z,3.24
2018-11-23T02:21:06.082Z,3.18
2018-11-23T02:22:06.101Z,3.21
2018-11-23T02:23:06.070Z,3.27
2018-11-23T02:24:06.063Z,3.20
2018-11-23T02:25:06.057Z,3.25
2018-11-23T02:26:06.041Z,3.25
2018-11-23T02:27:06.071Z,3.23
2018-11-23T02:28:06.038Z,3.25
2018-11-23T02:29:06.031Z,3.10
2018-11-23T02:30:06.022Z,3.18
2018-11-23T02:31:06.021Z,3.23
2018-11-23T02:32:06.046Z,3.21
2018-11-23T02:33:06.045Z,3.16
2018-11-23T02:34:06.007Z,3.15
2018-11-23T02:35:05.993Z,3.16
2018-11-23T02:36:05.995Z,3.13
2018-11-23T02:37:05.989Z,3.16
2018-11-23T02:38:06.017Z,3.13
2018-11-23T02:39:05.980Z,3.18
2018-11-23T02:40:05.969Z,3.10
2018-11-23T02:41:05.964Z,3.15
2018-11-23T02:42:05.957Z,3.02
2018-11-23T02:43:05.979Z,3.03
2018-11-23T02:44:05.949Z,3.05
2018-11-23T02:45:05.945Z,2.98
2018-11-23T02:46:05.940Z,3.02
2018-11-23T02:47:05.929Z,3.02
2018-11-23T02:48:05.953Z,3.10
2018-11-23T02:49:05.929Z,3.02
2018-11-23T02:50:05.908Z,3.07
2018-11-23T02:51:05.912Z,3.05
2018-11-23T02:52:05.899Z,3.03
2018-11-23T02:53:05.924Z,3.12
2018-11-23T02:54:05.888Z,3.00
2018-11-23T02:55:05.885Z,3.06
2018-11-23T02:56:05.881Z,3.15
2018-11-23T02:57:05.876Z,3.20
2018-11-23T02:58:05.898Z,3.18
2018-11-23T02:59:05.859Z,3.15
2018-11-23T03:00:05.856Z,3.07
2018-11-23T03:01:05.852Z,3.10
2018-11-23T03:02:05.847Z,2.97
2018-11-23T03:03:05.864Z,2.94
2018-11-23T03:04:05.832Z,2.88
2018-11-23T03:05:05.824Z,2.84
2018-11-23T03:06:05.820Z,2.79
2018-11-23T03:07:05.813Z,2.85
2018-11-23T03:08:05.836Z,2.85
2018-11-23T03:09:05.808Z,2.85
2018-11-23T03:10:05.803Z,2.91
2018-11-23T03:11:05.787Z,2.77
2018-11-23T03:12:05.789Z,2.84
2018-11-23T03:13:05.807Z,2.92
2018-11-23T03:14:05.777Z,2.91
2018-11-23T03:15:05.768Z,2.92
2018-11-23T03:16:05.763Z,2.91
2018-11-23T03:17:05.765Z,2.89
2018-11-23T03:18:05.787Z,2.94
2018-11-23T03:19:05.747Z,2.85
2018-11-23T03:20:05.736Z,3.00
2018-11-23T03:21:05.735Z,2.92
2018-11-23T03:22:05.727Z,2.88
2018-11-23T03:23:05.750Z,2.87
2018-11-23T03:24:05.714Z,2.89
2018-11-23T03:25:05.711Z,2.87
2018-11-23T03:26:05.704Z,2.94
2018-11-23T03:27:05.699Z,3.02
2018-11-23T03:28:05.717Z,2.97
2018-11-23T03:29:05.690Z,3.07
2018-11-23T03:30:05.675Z,3.06
2018-11-23T03:31:12.314Z,3.03
2018-11-23T03:32:05.671Z,3.09
2018-11-23T03:33:05.692Z,3.18
2018-11-23T03:34:05.658Z,3.13
2018-11-23T03:35:05.654Z,3.18
2018-11-23T03:36:05.655Z,3.13
2018-11-23T03:37:05.642Z,3.23
2018-11-23T03:38:05.662Z,3.15
2018-11-23T03:39:05.631Z,3.20
2018-11-23T03:40:05.627Z,3.24
2018-11-23T03:41:05.619Z,3.20
2018-11-23T03:42:05.610Z,3.16
2018-11-23T03:43:05.631Z,3.16
2018-11-23T03:44:05.598Z,3.20
2018-11-23T03:45:05.600Z,3.23
2018-11-23T03:46:05.586Z,3.27
2018-11-23T03:47:05.590Z,3.23
2018-11-23T03:48:05.608Z,3.24
2018-11-23T03:49:05.566Z,3.21
2018-11-23T03:50:05.567Z,3.34
2018-11-23T03:51:05.553Z,3.24
2018-11-23T03:52:05.555Z,3.25
2018-11-23T03:53:05.574Z,3.28
2018-11-23T03:54:05.547Z,3.27
2018-11-23T03:55:05.534Z,3.31
2018-11-23T03:56:05.531Z,3.33
2018-11-23T03:57:05.526Z,3.30
2018-11-23T03:58:05.554Z,3.27
2018-11-23T03:59:05.510Z,3.28
2018-11-23T04:00:05.506Z,3.23
2018-11-23T04:01:05.502Z,3.27
2018-11-23T04:02:05.494Z,3.30
2018-11-23T04:03:05.518Z,3.27
2018-11-23T04:04:05.481Z,3.30
2018-11-23T04:05:05.477Z,3.23
2018-11-23T04:06:05.471Z,3.30
2018-11-23T04:07:05.465Z,3.20
2018-11-23T04:08:05.489Z,3.28
2018-11-23T04:09:05.454Z,3.21
2018-11-23T04:10:05.446Z,3.13
2018-11-23T04:11:05.440Z,3.20
2018-11-23T04:12:05.437Z,3.24
2018-11-23T04:13:05.460Z,3.12
2018-11-23T04:14:05.418Z,3.20
2018-11-23T04:15:05.417Z,3.24
2018-11-23T04:16:05.418Z,3.12
2018-11-23T04:17:05.406Z,3.18
2018-11-23T04:18:05.424Z,3.20
2018-11-23T04:19:05.399Z,3.20
2018-11-23T04:20:05.391Z,3.18
2018-11-23T04:21:05.387Z,3.20
2018-11-23T04:22:05.376Z,3.13
2018-11-23T04:23:05.395Z,3.15
2018-11-23T04:24:05.364Z,3.20
2018-11-23T04:25:05.357Z,3.20
2018-11-23T04:26:05.353Z,3.21
2018-11-23T04:27:05.345Z,3.16
2018-11-23T04:28:05.366Z,3.20
2018-11-23T04:29:05.332Z,3.16
2018-11-23T04:30:05.330Z,3.20
2018-11-23T04:31:05.319Z,3.15
2018-11-23T04:32:05.316Z,3.10
2018-11-23T04:33:05.337Z,3.13
2018-11-23T04:34:05.306Z,3.10
2018-11-23T04:35:05.296Z,3.15
2018-11-23T04:36:05.292Z,3.12
2018-11-23T04:37:05.292Z,3.00
2018-11-23T04:38:05.304Z,3.02
2018-11-23T04:39:05.274Z,3.05
2018-11-23T04:40:05.268Z,3.06
2018-11-23T04:41:05.265Z,3.03
2018-11-23T04:42:05.259Z,3.03
2018-11-23T04:43:05.281Z,3.05
2018-11-23T04:44:05.243Z,2.97
2018-11-23T04:45:05.233Z,3.07
2018-11-23T04:46:05.238Z,2.92
2018-11-23T04:47:05.231Z,2.91
2018-11-23T04:48:05.246Z,3.07
2018-11-23T04:49:05.213Z,2.92
2018-11-23T04:50:05.203Z,2.89
2018-11-23T04:51:05.199Z,2.89
2018-11-23T04:52:05.196Z,2.91
2018-11-23T04:53:05.221Z,3.00
2018-11-23T04:54:05.188Z,2.91
2018-11-23T04:55:05.176Z,2.87
2018-11-23T04:56:05.174Z,2.92
2018-11-23T04:57:05.162Z,2.91
2018-11-23T04:58:05.186Z,2.91
2018-11-23T04:59:05.150Z,2.87
2018-11-23T05:00:05.144Z,2.94
2018-11-23T05:01:05.139Z,2.97
2018-11-23T05:02:05.131Z,3.00
2018-11-23T05:03:05.151Z,3.06
2018-11-23T05:04:05.938Z,3.03
2018-11-23T05:05:05.114Z,2.95
2018-11-23T05:06:05.108Z,2.92
2018-11-23T05:07:05.095Z,2.89
2018-11-23T05:08:05.122Z,2.91
2018-11-23T05:09:05.087Z,2.84
2018-11-23T05:10:05.082Z,2.79
2018-11-23T05:11:05.074Z,2.92
2018-11-23T05:12:05.070Z,2.87
2018-11-23T05:13:05.091Z,2.89
2018-11-23T05:14:05.054Z,2.92
2018-11-23T05:15:05.050Z,2.81
2018-11-23T05:16:05.045Z,2.92
2018-11-23T05:17:05.037Z,2.89
2018-11-23T05:18:05.058Z,2.91
2018-11-23T05:19:05.025Z,2.84
2018-11-23T05:20:05.020Z,2.76
2018-11-23T05:21:05.022Z,2.87
2018-11-23T05:22:05.005Z,2.84
2018-11-23T05:23:05.029Z,2.77
2018-11-23T05:24:04.992Z,2.81
2018-11-23T05:25:04.985Z,2.73
2018-11-23T05:26:04.977Z,2.73
2018-11-23T05:27:04.973Z,2.66
2018-11-23T05:28:04.996Z,2.77
2018-11-23T05:29:04.961Z,2.76
2018-11-23T05:30:04.953Z,2.70
2018-11-23T05:31:04.945Z,2.81
2018-11-23T05:32:04.942Z,2.73
2018-11-23T05:33:04.964Z,2.74
2018-11-23T05:34:04.929Z,2.79
2018-11-23T05:35:04.922Z,2.76
2018-11-23T05:36:04.914Z,2.76
2018-11-23T05:37:04.908Z,2.67
2018-11-23T05:38:04.931Z,2.71
2018-11-23T05:39:04.901Z,2.71
2018-11-23T05:40:04.889Z,2.71
2018-11-23T05:41:04.885Z,2.71
2018-11-23T05:42:04.877Z,2.64
2018-11-23T05:43:04.911Z,2.63
2018-11-23T05:44:04.860Z,2.61
2018-11-23T05:45:04.856Z,2.69
2018-11-23T05:46:04.848Z,2.67
2018-11-23T05:47:04.844Z,2.56
2018-11-23T05:48:04.864Z,2.49
2018-11-23T05:49:04.829Z,2.52
2018-11-23T05:50:05.441Z,2.52
2018-11-23T05:51:04.816Z,2.51
2018-11-23T05:52:04.811Z,2.52
2018-11-23T05:53:04.829Z,2.49
2018-11-23T05:54:04.798Z,2.52
2018-11-23T05:55:04.788Z,2.58
2018-11-23T05:56:04.788Z,2.67
2018-11-23T05:57:04.775Z,2.69
2018-11-23T05:58:04.796Z,2.63
2018-11-23T05:59:04.762Z,2.63
2018-11-23T06:00:04.752Z,2.73
2018-11-23T06:01:04.795Z,2.66
2018-11-23T06:02:04.742Z,2.61
2018-11-23T06:03:04.759Z,2.69
2018-11-23T06:04:04.731Z,2.69
2018-11-23T06:05:04.729Z,2.53
2018-11-23T06:06:04.715Z,2.49
2018-11-23T06:07:04.708Z,2.55
2018-11-23T06:08:04.730Z,2.63
2018-11-23T06:09:04.695Z,2.66
2018-11-23T06:10:04.767Z,2.67
2018-11-23T06:11:04.683Z,2.64
2018-11-23T06:12:04.675Z,2.66
2018-11-23T06:13:04.703Z,2.66
2018-11-23T06:14:04.663Z,2.63
2018-11-23T06:15:04.655Z,2.69
2018-11-23T06:16:04.647Z,2.69
2018-11-23T06:17:04.642Z,2.70
2018-11-23T06:18:04.661Z,2.69
2018-11-23T06:19:04.626Z,2.64
2018-11-23T06:20:04.623Z,2.67
2018-11-23T06:21:04.600Z,2.63
2018-11-23T06:22:04.633Z,2.70
2018-11-23T06:23:04.601Z,2.67
2018-11-23T06:24:04.589Z,2.71
2018-11-23T06:25:04.590Z,2.66
2018-11-23T06:26:04.582Z,2.70
2018-11-23T06:27:04.605Z,2.77
2018-11-23T06:28:04.569Z,2.64
2018-11-23T06:29:04.562Z,2.73
2018-11-23T06:30:04.553Z,2.73
2018-11-23T06:31:04.577Z,2.69
2018-11-23T06:32:04.547Z,2.67
2018-11-23T06:33:04.537Z,2.64
2018-11-23T06:34:04.526Z,2.70
2018-11-23T06:35:04.522Z,2.67
2018-11-23T06:36:05.014Z,2.70
2018-11-23T06:37:04.553Z,2.66
2018-11-23T06:38:04.501Z,2.70
2018-11-23T06:39:04.498Z,2.64
2018-11-23T06:40:04.489Z,2.66
2018-11-23T06:41:10.155Z,2.70
2018-11-23T06:42:04.502Z,2.64
2018-11-23T06:43:04.470Z,2.64
2018-11-23T06:44:04.457Z,2.66
2018-11-23T06:45:04.452Z,2.64
2018-11-23T06:46:04.448Z,2.67
2018-11-23T06:47:04.471Z,2.61
2018-11-23T06:48:04.436Z,2.66
2018-11-23T06:49:04.428Z,2.71
2018-11-23T06:50:04.455Z,2.67
2018-11-23T06:51:04.412Z,2.67
2018-11-23T06:52:04.436Z,2.51
2018-11-23T06:53:04.399Z,2.64
2018-11-23T06:54:04.400Z,2.55
2018-11-23T06:55:04.389Z,2.58
2018-11-23T06:56:04.385Z,2.56
2018-11-23T06:57:04.400Z,2.48
2018-11-23T06:58:04.364Z,2.51
2018-11-23T06:59:04.360Z,2.51
2018-11-23T07:00:04.352Z,2.55
2018-11-23T07:01:04.348Z,2.59
2018-11-23T07:02:04.366Z,2.45
2018-11-23T07:03:04.341Z,2.53
2018-11-23T07:04:04.329Z,2.52
2018-11-23T07:05:04.323Z,2.46
2018-11-23T07:06:04.312Z,2.55
2018-11-23T07:07:04.342Z,2.51
2018-11-23T07:08:04.292Z,2.52
2018-11-23T07:09:04.303Z,2.53
2018-11-23T07:10:04.288Z,2.44
2018-11-23T07:11:04.314Z,2.46
2018-11-23T07:12:04.285Z,2.49
2018-11-23T07:13:04.270Z,2.52
2018-11-23T07:14:04.263Z,2.48
2018-11-23T07:15:04.254Z,2.55
2018-11-23T07:16:04.288Z,2.40
2018-11-23T07:17:04.271Z,2.33
2018-11-23T07:18:04.234Z,2.45
2018-11-23T07:19:04.231Z,2.38
2018-11-23T07:20:04.221Z,2.45
2018-11-23T07:21:04.217Z,2.44
2018-11-23T07:22:04.234Z,2.44
2018-11-23T07:23:04.202Z,2.46
2018-11-23T07:24:04.194Z,2.30
2018-11-23T07:25:04.190Z,2.31
2018-11-23T07:26:04.182Z,2.34
2018-11-23T07:27:04.203Z,2.35
2018-11-23T07:28:04.168Z,2.31
2018-11-23T07:29:04.166Z,2.33
2018-11-23T07:30:04.153Z,2.33
2018-11-23T07:31:04.151Z,2.35
2018-11-23T07:32:04.169Z,2.30
2018-11-23T07:33:04.137Z,2.49
2018-11-23T07:34:04.137Z,2.41
2018-11-23T07:35:04.126Z,2.33
2018-11-23T07:36:04.145Z,2.33
2018-11-23T07:37:04.138Z,2.31
2018-11-23T07:38:04.105Z,2.41
2018-11-23T07:39:04.097Z,2.37
2018-11-23T07:40:04.093Z,2.30
2018-11-23T07:41:04.081Z,2.28
2018-11-23T07:42:04.106Z,2.46
2018-11-23T07:43:04.074Z,2.37
2018-11-23T07:44:04.065Z,2.27
2018-11-23T07:45:04.061Z,2.37
2018-11-23T07:46:04.081Z,2.31
2018-11-23T07:47:04.044Z,2.30
2018-11-23T07:48:04.041Z,2.46
2018-11-23T07:49:04.036Z,2.63
2018-11-23T07:50:04.029Z,2.79
2018-11-23T07:51:04.061Z,3.02
2018-11-23T07:52:04.025Z,3.23
2018-11-23T07:53:04.940Z,3.44
2018-11-23T07:54:04.009Z,3.62
2018-11-23T07:55:04.013Z,3.61
2018-11-23T07:56:04.040Z,3.89
2018-11-23T07:57:03.997Z,4.15
2018-11-23T07:58:04.005Z,4.18
2018-11-23T07:59:03.977Z,4.18
2018-11-23T08:00:03.973Z,4.24
2018-11-23T08:01:04.009Z,4.07
2018-11-23T08:02:03.963Z,3.90
2018-11-23T08:03:03.960Z,3.90
2018-11-23T08:04:03.960Z,3.89
2018-11-23T08:05:03.956Z,3.88
2018-11-23T08:06:03.976Z,4.01
2018-11-23T08:07:03.958Z,4.24
2018-11-23T08:08:03.951Z,4.40
2018-11-23T08:09:03.948Z,4.29
2018-11-23T08:10:03.940Z,3.98
2018-11-23T08:11:03.968Z,4.00
2018-11-23T08:12:03.940Z,3.88
2018-11-23T08:13:03.933Z,4.00
2018-11-23T08:14:03.939Z,4.44
2018-11-23T08:15:03.931Z,4.59
2018-11-23T08:16:03.967Z,4.72
2018-11-23T08:17:03.930Z,4.46
2018-11-23T08:18:03.946Z,4.51
2018-11-23T08:19:03.932Z,4.42
2018-11-23T08:20:03.939Z,4.21
2018-11-23T08:21:03.962Z,4.04
2018-11-23T08:22:03.917Z,4.07
2018-11-23T08:23:03.915Z,3.96
2018-11-23T08:24:03.915Z,4.07
2018-11-23T08:25:03.923Z,4.15
2018-11-23T08:26:03.930Z,4.25
2018-11-23T08:27:03.910Z,4.46
2018-11-23T08:28:03.908Z,4.18
2018-11-23T08:29:03.902Z,4.04
2018-11-23T08:30:03.898Z,3.96
2018-11-23T08:31:03.929Z,4.03
2018-11-23T08:32:03.907Z,4.01
2018-11-23T08:33:03.900Z,3.90
2018-11-23T08:34:03.890Z,3.76
2018-11-23T08:35:04.442Z,4.07
2018-11-23T08:36:03.919Z,4.32
2018-11-23T08:37:03.878Z,4.59
2018-11-23T08:38:03.868Z,4.79
2018-11-23T08:39:04.800Z,5.05
2018-11-23T08:40:03.865Z,5.22
2018-11-23T08:41:03.920Z,5.59
2018-11-23T08:42:03.870Z,6.28
2018-11-23T08:43:03.875Z,6.33
2018-11-23T08:44:03.869Z,6.36
2018-11-23T08:45:03.879Z,6.61
2018-11-23T08:46:03.906Z,6.46
2018-11-23T08:47:04.445Z,6.46
2018-11-23T08:48:03.876Z,5.70
2018-11-23T08:49:04.439Z,5.57
2018-11-23T08:50:03.901Z,5.88
2018-11-23T08:51:03.865Z,6.56
2018-11-23T08:52:03.866Z,6.84
2018-11-23T08:53:03.875Z,7.34
2018-11-23T08:54:03.882Z,7.85
2018-11-23T08:55:03.915Z,8.22
2018-11-23T08:56:03.886Z,7.45
2018-11-23T08:57:03.918Z,7.04
2018-11-23T08:58:03.874Z,6.40
2018-11-23T08:59:03.880Z,6.35
2018-11-23T09:00:03.887Z,6.22
2018-11-23T09:01:03.912Z,6.71
2018-11-23T09:02:05.655Z,7.32
2018-11-23T09:03:03.892Z,8.02
2018-11-23T09:04:03.889Z,8.51
2018-11-23T09:05:03.889Z,7.96
2018-11-23T09:06:03.920Z,7.94
2018-11-23T09:07:05.420Z,7.59
2018-11-23T09:08:03.906Z,7.93
2018-11-23T09:09:03.917Z,8.33
2018-11-23T09:10:03.916Z,8.20
2018-11-23T09:11:03.964Z,8.28
2018-11-23T09:12:03.925Z,8.75
2018-11-23T09:13:03.900Z,8.83
2018-11-23T09:14:03.914Z,9.02
2018-11-23T09:15:04.485Z,9.09
2018-11-23T09:16:05.854Z,9.27
2018-11-23T09:17:03.933Z,9.35
2018-11-23T09:18:03.936Z,9.76
2018-11-23T09:19:03.940Z,7.97
2018-11-23T09:20:04.815Z,7.87
2018-11-23T09:21:03.976Z,7.59
2018-11-23T09:22:03.953Z,7.74
2018-11-23T09:23:03.971Z,7.50
2018-11-23T09:24:03.968Z,7.84
2018-11-23T09:25:03.969Z,8.29
2018-11-23T09:26:04.001Z,7.69
2018-11-23T09:27:03.976Z,7.40
2018-11-23T09:28:03.971Z,7.38
2018-11-23T09:29:03.975Z,6.76
2018-11-23T09:30:03.988Z,6.80
2018-11-23T09:31:04.020Z,7.08
2018-11-23T09:32:03.992Z,7.19
2018-11-23T09:33:03.991Z,7.50
2018-11-23T09:34:04.008Z,7.85
2018-11-23T09:35:04.046Z,7.24
2018-11-23T09:36:04.068Z,7.13
2018-11-23T09:37:04.053Z,7.45
2018-11-23T09:38:04.034Z,8.21
2018-11-23T09:39:04.029Z,8.39
2018-11-23T09:40:04.035Z,7.85
2018-11-23T09:41:04.056Z,8.15
2018-11-23T09:42:04.819Z,8.54
2018-11-23T09:43:04.070Z,8.57
2018-11-23T09:44:04.075Z,8.20
2018-11-23T09:45:04.068Z,7.93
2018-11-23T09:46:04.090Z,6.97
2018-11-23T09:47:10.024Z,7.07
2018-11-23T09:48:04.077Z,7.49
2018-11-23T09:49:04.078Z,8.00
2018-11-23T09:50:04.083Z,7.94
2018-11-23T09:51:04.114Z,8.21
2018-11-23T09:52:04.094Z,8.00
2018-11-23T09:53:04.096Z,7.89
2018-11-23T09:54:04.102Z,6.86
2018-11-23T09:55:04.211Z,6.84
2018-11-23T09:56:04.279Z,6.71
2018-11-23T09:57:04.127Z,6.00
2018-11-23T09:58:04.233Z,6.58
2018-11-23T09:59:04.193Z,6.83
2018-11-23T10:00:04.136Z,6.62
2018-11-23T10:01:04.168Z,6.38
2018-11-23T10:02:04.146Z,6.26
2018-11-23T10:03:04.194Z,6.30
2018-11-23T10:04:04.157Z,6.30
2018-11-23T10:05:04.191Z,6.11
2018-11-23T10:06:04.170Z,6.13
2018-11-23T10:07:04.194Z,6.07
2018-11-23T10:08:04.178Z,6.13
2018-11-23T10:09:04.182Z,5.95
2018-11-23T10:10:04.197Z,6.40
2018-11-23T10:11:04.213Z,6.18
2018-11-23T10:12:04.190Z,5.74
2018-11-23T10:13:04.190Z,5.67
2018-11-23T10:14:04.199Z,5.34
2018-11-23T10:15:04.231Z,5.37
2018-11-23T10:16:04.212Z,5.46
2018-11-23T10:17:04.214Z,5.81
2018-11-23T10:18:04.216Z,5.70
2018-11-23T10:19:04.223Z,5.92
2018-11-23T10:20:04.254Z,6.06
2018-11-23T10:21:04.229Z,5.89
2018-11-23T10:22:04.235Z,5.93
2018-11-23T10:23:04.240Z,6.07
2018-11-23T10:24:04.237Z,5.74
2018-11-23T10:25:04.273Z,5.78
2018-11-23T10:26:04.265Z,6.04
2018-11-23T10:27:04.270Z,6.43
2018-11-23T10:28:04.253Z,7.02
2018-11-23T10:29:04.292Z,6.95
2018-11-23T10:30:04.266Z,7.12
2018-11-23T10:31:04.270Z,7.17
2018-11-23T10:32:04.309Z,6.99
2018-11-23T10:33:04.327Z,7.45
2018-11-23T10:34:04.316Z,7.81
2018-11-23T10:35:04.290Z,7.63
2018-11-23T10:36:04.296Z,7.37
2018-11-23T10:37:04.301Z,6.91
2018-11-23T10:38:04.308Z,7.07
2018-11-23T10:39:04.344Z,7.37
2018-11-23T10:40:04.358Z,6.97
2018-11-23T10:41:04.323Z,6.48
2018-11-23T10:42:04.329Z,6.62
2018-11-23T10:43:04.343Z,6.79
2018-11-23T10:44:04.345Z,6.48
2018-11-23T10:45:04.370Z,6.66
2018-11-23T10:46:04.349Z,6.41
2018-11-23T10:47:04.358Z,6.56
2018-11-23T10:48:04.429Z,6.32
2018-11-23T10:49:04.394Z,6.01
2018-11-23T10:50:04.402Z,6.06
2018-11-23T10:51:04.385Z,6.44
2018-11-23T10:52:04.390Z,6.71
2018-11-23T10:53:04.393Z,6.73
2018-11-23T10:54:04.399Z,7.01
2018-11-23T10:55:04.432Z,7.01
2018-11-23T10:56:04.412Z,7.29
2018-11-23T10:57:04.432Z,7.32
2018-11-23T10:58:04.417Z,7.31
2018-11-23T10:59:04.424Z,7.17
2018-11-23T11:00:04.457Z,7.26
2018-11-23T11:01:04.477Z,6.80
2018-11-23T11:02:04.436Z,6.56
2018-11-23T11:03:04.453Z,6.69
2018-11-23T11:04:04.459Z,7.16
2018-11-23T11:05:04.489Z,7.66
2018-11-23T11:06:04.464Z,7.47
2018-11-23T11:07:04.469Z,7.24
2018-11-23T11:08:04.485Z,7.58
2018-11-23T11:09:04.485Z,7.79
2018-11-23T11:10:04.518Z,8.28
2018-11-23T11:11:04.494Z,8.28
2018-11-23T11:12:04.507Z,7.50
2018-11-23T11:13:04.509Z,7.13
2018-11-23T11:14:04.516Z,7.23
2018-11-23T11:15:04.553Z,6.68
2018-11-23T11:16:04.529Z,6.83
2018-11-23T11:17:04.544Z,6.84
2018-11-23T11:18:04.545Z,7.20
2018-11-23T11:19:04.549Z,7.13
2018-11-23T11:20:04.584Z,7.52
2018-11-23T11:21:04.561Z,7.87
2018-11-23T11:22:04.568Z,7.82
2018-11-23T11:23:04.572Z,7.58
2018-11-23T11:24:04.582Z,7.63
2018-11-23T11:25:04.647Z,7.60
2018-11-23T11:26:04.592Z,7.66
2018-11-23T11:27:04.629Z,7.94
2018-11-23T11:28:04.603Z,8.15
2018-11-23T11:29:04.640Z,8.15
2018-11-23T11:30:04.616Z,8.66
2018-11-23T11:31:04.628Z,8.76
2018-11-23T11:32:04.633Z,8.54
2018-11-23T11:33:04.668Z,7.94
2018-11-23T11:34:04.644Z,8.04
2018-11-23T11:35:04.680Z,8.60
2018-11-23T11:36:04.660Z,9.28
2018-11-23T11:37:04.664Z,9.60
2018-11-23T11:38:04.673Z,10.04
2018-11-23T11:39:04.684Z,9.18
2018-11-23T11:40:04.720Z,8.48
2018-11-23T11:41:04.697Z,8.12
2018-11-23T11:42:04.699Z,8.26
2018-11-23T11:43:04.712Z,8.32
2018-11-23T11:44:04.720Z,8.11
2018-11-23T11:45:04.751Z,8.86
2018-11-23T11:46:04.732Z,9.57
2018-11-23T11:47:04.740Z,9.73
2018-11-23T11:48:04.747Z,9.53
2018-11-23T11:49:04.816Z,9.75
2018-11-23T11:50:04.792Z,10.22
2018-11-23T11:51:04.771Z,10.76
2018-11-23T11:52:04.776Z,10.65
2018-11-23T11:53:04.812Z,9.43
2018-11-23T11:54:04.811Z,8.94
2018-11-23T11:55:04.827Z,8.66
2018-11-23T11:56:04.834Z,8.96
2018-11-23T11:57:04.816Z,8.69
2018-11-23T11:58:04.820Z,8.28
2018-11-23T11:59:04.827Z,8.78
2018-11-23T12:00:04.906Z,9.25
2018-11-23T12:01:04.847Z,9.61
2018-11-23T12:02:10.113Z,9.52
2018-11-23T12:03:04.893Z,9.35
2018-11-23T12:04:04.864Z,9.45
2018-11-23T12:05:04.871Z,9.39
2018-11-23T12:06:04.909Z,8.63
2018-11-23T12:07:04.889Z,7.72
2018-11-23T12:08:04.896Z,7.62
2018-11-23T12:09:04.905Z,7.69
2018-11-23T12:10:04.909Z,8.20
2018-11-23T12:11:04.944Z,8.68
2018-11-23T12:12:04.926Z,8.30
2018-11-23T12:13:04.932Z,7.97
2018-11-23T12:14:04.937Z,7.67
2018-11-23T12:15:08.862Z,7.69
2018-11-23T12:16:04.977Z,8.14
2018-11-23T12:17:04.955Z,8.88
2018-11-23T12:18:04.968Z,9.31
2018-11-23T12:19:05.641Z,9.82
2018-11-23T12:20:05.004Z,9.86
2018-11-23T12:21:04.981Z,10.03
2018-11-23T12:22:05.019Z,10.21
2018-11-23T12:23:05.003Z,10.06
2018-11-23T12:24:05.000Z,9.79
2018-11-23T12:25:05.006Z,9.49
2018-11-23T12:26:05.038Z,9.15
2018-11-23T12:27:05.018Z,9.18
2018-11-23T12:28:05.026Z,9.50
2018-11-23T12:29:05.032Z,9.60
2018-11-23T12:30:05.040Z,9.85
2018-11-23T12:31:05.072Z,9.27
2018-11-23T12:32:05.052Z,8.63
2018-11-23T12:33:05.052Z,8.65
2018-11-23T12:34:05.056Z,8.72
2018-11-23T12:35:05.064Z,8.21
2018-11-23T12:36:05.102Z,8.18
2018-11-23T12:37:05.071Z,8.45
2018-11-23T12:38:05.081Z,8.50
2018-11-23T12:39:05.084Z,7.96
2018-11-23T12:40:05.088Z,7.71
2018-11-23T12:41:05.124Z,7.77
2018-11-23T12:42:05.099Z,7.78
2018-11-23T12:43:05.098Z,7.34
2018-11-23T12:44:07.534Z,7.05
2018-11-23T12:45:05.115Z,7.20
2018-11-23T12:46:05.144Z,7.31
2018-11-23T12:47:05.125Z,7.62
2018-11-23T12:48:05.119Z,7.23
2018-11-23T12:49:05.131Z,6.71
2018-11-23T12:50:05.164Z,6.89
2018-11-23T12:51:05.135Z,6.76
2018-11-23T12:52:06.005Z,6.41
2018-11-23T12:53:06.464Z,6.21
2018-11-23T12:54:05.173Z,6.65
2018-11-23T12:55:05.151Z,6.35
2018-11-23T12:56:05.176Z,6.14
2018-11-23T12:57:06.012Z,6.30
2018-11-23T12:58:05.152Z,6.11
2018-11-23T12:59:05.159Z,5.88
2018-11-23T13:00:05.160Z,6.04
2018-11-23T13:01:05.190Z,6.33
2018-11-23T13:02:05.164Z,6.61
2018-11-23T13:03:05.162Z,6.56
2018-11-23T13:04:05.166Z,6.44
2018-11-23T13:05:05.167Z,6.59
2018-11-23T13:06:05.196Z,6.80
2018-11-23T13:07:05.172Z,6.80
2018-11-23T13:08:05.176Z,6.81
2018-11-23T13:09:05.176Z,7.12
2018-11-23T13:10:05.210Z,7.17
2018-11-23T13:11:05.175Z,7.19
2018-11-23T13:12:05.184Z,7.16
2018-11-23T13:13:05.182Z,7.37
2018-11-23T13:14:05.183Z,7.49
2018-11-23T13:15:05.212Z,7.47
2018-11-23T13:16:05.219Z,7.37
2018-11-23T13:17:05.195Z,7.44
2018-11-23T13:18:05.208Z,6.97